Merelbeke, Belgium
Current Conditions -  °F | °C
As of 3:04 PM on Monday 22 Dec 2014 (Local Time) from EBCV Reporting Station
Overcast Overcast  
Wind Chill: 50°   Ceiling: 800
Heat Index: 50°   Visibility: 3mi
Dew Point: 48°   Wind: 16mph
Humidity: 94%   Direction: 230°SW
Pressure: 30.18"   Gusts: NA
Location:  50.99°N, 3.75°E
Report Text: EBCV 221404Z AUTO 23014KT 5000 FEW006/// BKN008/// OVC011/// 10/09 Q1022 GRN
Loading
Personal Weather Stations






























Interactive Weather Map New forecast layout! Learn more

10-Day Weather Forecast

Advertisements
Track Severe Weather on mobile